This is the latest recevied weather packets stored in our database for station/object PA5MB-15. If no packets are shown the sender has not sent any weather packets the latest 1 day(s).
| Time | Temp. | Humidity | Pressure | Rain* | Wind** | Luminosity | Snow |
|---|---|---|---|---|---|---|---|
| 1777971046 | 10.56° C | 94% | 1012.7 hPa | 0 mm | 1.34 m/s, 6° | 9 W/m² | - |
| 1777970743 | 10.56° C | 94% | 1012.8 hPa | 0 mm | 0.45 m/s, 27° | 7 W/m² | - |
| 1777970424 | 10.56° C | 94% | 1012.8 hPa | 0 mm | 0.89 m/s, 359° | 8 W/m² | - |
| 1777970135 | 10.56° C | 94% | 1012.8 hPa | 0 mm | 0.89 m/s, 4° | 9 W/m² | - |
| 1777969831 | 10.56° C | 94% | 1012.8 hPa | 0 mm | 1.34 m/s, 360° | 11 W/m² | - |
| 1777969531 | 10.56° C | 94% | 1012.8 hPa | 0 mm | 0.89 m/s, 345° | 8 W/m² | - |
| 1777969223 | 10.56° C | 95% | 1012.8 hPa | 0 mm | 0.89 m/s, 345° | 7 W/m² | - |
| 1777968931 | 10.56° C | 95% | 1012.8 hPa | 0 mm | 0.89 m/s, 355° | 7 W/m² | - |
| 1777968631 | 10.56° C | 95% | 1012.8 hPa | 0 mm | 1.34 m/s, 7° | 6 W/m² | - |
| 1777968331 | 10.56° C | 95% | 1012.8 hPa | 0 mm | 0.89 m/s, 14° | 6 W/m² | - |
| 1777968026 | 10.56° C | 95% | 1012.8 hPa | 0 mm | 0.89 m/s, 11° | 6 W/m² | - |
| 1777967734 | 10.56° C | 95% | 1012.7 hPa | 0 mm | 0.89 m/s, 5° | 6 W/m² | - |
| 1777967431 | 10.56° C | 96% | 1012.7 hPa | 0 mm | 1.34 m/s, 20° | 7 W/m² | - |
| 1777967130 | 10° C | 96% | 1012.7 hPa | 0 mm | 0.89 m/s, 349° | 7 W/m² | - |
| 1777966842 | 10° C | 96% | 1012.6 hPa | 0 mm | 0.89 m/s, 356° | 7 W/m² | - |
| 1777966531 | 10° C | 97% | 1012.5 hPa | 0 mm | 1.34 m/s, 350° | 8 W/m² | - |
| 1777966231 | 10° C | 97% | 1012.6 hPa | 0 mm | 0.45 m/s, 9° | 6 W/m² | - |
| 1777965931 | 10° C | 97% | 1012.6 hPa | 0 mm | 0.45 m/s, 1° | 5 W/m² | - |
| 1777965631 | 10° C | 97% | 1012.6 hPa | 0 mm | 0.89 m/s, 4° | 5 W/m² | - |
| 1777965335 | 10° C | 97% | 1012.6 hPa | 0 mm | 1.34 m/s, 343° | 7 W/m² | - |
| 1777965043 | 10° C | 97% | 1012.6 hPa | 0 mm | 0.89 m/s, 350° | 7 W/m² | - |
| 1777964730 | 10° C | 98% | 1012.7 hPa | 0 mm | 0.89 m/s, 2° | 6 W/m² | - |
| 1777964434 | 10° C | 98% | 1012.8 hPa | 0 mm | 0.45 m/s, 0° | 5 W/m² | - |
| 1777964134 | 10° C | 98% | 1012.7 hPa | 0 mm | 0.89 m/s, 354° | 5 W/m² | - |
| 1777963831 | 10° C | 98% | 1012.7 hPa | 0 mm | 0.89 m/s, 352° | 5 W/m² | - |
* Rain latest hour (hover to see other rain measurements)
** Current wind speed in m/s (hover to see current wind gust speed)